sensor_id;sensor_type;location;lat;lon;timestamp;P1;durP1;ratioP1;P2;durP2;ratioP2
22652;SDS011;11493;43.344;26.226;2023-11-19T00:00:53;2.28;;;1.50;;
22652;SDS011;11493;43.344;26.226;2023-11-19T00:03:20;1.60;;;1.50;;
22652;SDS011;11493;43.344;26.226;2023-11-19T00:05:47;1.85;;;1.45;;
22652;SDS011;11493;43.344;26.226;2023-11-19T00:08:16;2.72;;;1.50;;
22652;SDS011;11493;43.344;26.226;2023-11-19T00:10:43;1.60;;;1.50;;
22652;SDS011;11493;43.344;26.226;2023-11-19T00:13:10;1.55;;;1.40;;
22652;SDS011;11493;43.344;26.226;2023-11-19T00:15:37;1.20;;;1.10;;
22652;SDS011;11493;43.344;26.226;2023-11-19T00:18:04;1.40;;;1.30;;
22652;SDS011;11493;43.344;26.226;2023-11-19T00:20:31;2.65;;;1.30;;
22652;SDS011;11493;43.344;26.226;2023-11-19T00:22:58;2.08;;;1.10;;
22652;SDS011;11493;43.344;26.226;2023-11-19T00:25:25;1.48;;;1.30;;
22652;SDS011;11493;43.344;26.226;2023-11-19T00:27:52;1.40;;;1.30;;
22652;SDS011;11493;43.344;26.226;2023-11-19T00:30:20;1.88;;;1.70;;
22652;SDS011;11493;43.344;26.226;2023-11-19T00:32:47;1.83;;;1.60;;
22652;SDS011;11493;43.344;26.226;2023-11-19T00:35:14;1.70;;;1.60;;
22652;SDS011;11493;43.344;26.226;2023-11-19T00:37:42;1.92;;;1.73;;
22652;SDS011;11493;43.344;26.226;2023-11-19T00:40:09;1.85;;;1.52;;
22652;SDS011;11493;43.344;26.226;2023-11-19T00:42:38;2.65;;;2.30;;
22652;SDS011;11493;43.344;26.226;2023-11-19T00:45:05;2.38;;;2.13;;
22652;SDS011;11493;43.344;26.226;2023-11-19T00:47:37;2.53;;;2.30;;
22652;SDS011;11493;43.344;26.226;2023-11-19T00:50:05;2.75;;;2.47;;
22652;SDS011;11493;43.344;26.226;2023-11-19T00:52:36;2.30;;;2.10;;
22652;SDS011;11493;43.344;26.226;2023-11-19T00:55:04;2.50;;;2.30;;
22652;SDS011;11493;43.344;26.226;2023-11-19T00:57:32;3.35;;;1.90;;
22652;SDS011;11493;43.344;26.226;2023-11-19T00:59:59;2.63;;;2.30;;
22652;SDS011;11493;43.344;26.226;2023-11-19T01:02:26;2.00;;;1.80;;
22652;SDS011;11493;43.344;26.226;2023-11-19T01:04:55;2.22;;;2.03;;
22652;SDS011;11493;43.344;26.226;2023-11-19T01:07:22;1.67;;;1.58;;
22652;SDS011;11493;43.344;26.226;2023-11-19T01:09:50;2.42;;;1.70;;
22652;SDS011;11493;43.344;26.226;2023-11-19T01:12:17;2.03;;;1.83;;
22652;SDS011;11493;43.344;26.226;2023-11-19T01:14:44;2.25;;;2.05;;
22652;SDS011;11493;43.344;26.226;2023-11-19T01:17:11;1.92;;;1.70;;
22652;SDS011;11493;43.344;26.226;2023-11-19T01:19:38;2.20;;;1.80;;
22652;SDS011;11493;43.344;26.226;2023-11-19T01:22:05;1.80;;;1.70;;
22652;SDS011;11493;43.344;26.226;2023-11-19T01:24:33;1.98;;;1.80;;
22652;SDS011;11493;43.344;26.226;2023-11-19T01:27:00;2.40;;;2.20;;
22652;SDS011;11493;43.344;26.226;2023-11-19T01:29:27;2.03;;;1.77;;
22652;SDS011;11493;43.344;26.226;2023-11-19T01:31:54;2.45;;;2.03;;
22652;SDS011;11493;43.344;26.226;2023-11-19T01:34:21;2.42;;;2.22;;
22652;SDS011;11493;43.344;26.226;2023-11-19T01:36:49;4.50;;;2.92;;
22652;SDS011;11493;43.344;26.226;2023-11-19T01:39:16;3.00;;;2.67;;
22652;SDS011;11493;43.344;26.226;2023-11-19T01:41:43;3.13;;;2.53;;
22652;SDS011;11493;43.344;26.226;2023-11-19T01:44:10;2.22;;;2.03;;
22652;SDS011;11493;43.344;26.226;2023-11-19T01:46:40;3.30;;;2.75;;
22652;SDS011;11493;43.344;26.226;2023-11-19T01:49:10;3.17;;;2.70;;
22652;SDS011;11493;43.344;26.226;2023-11-19T01:51:40;2.70;;;2.45;;
22652;SDS011;11493;43.344;26.226;2023-11-19T01:54:08;3.10;;;2.33;;
22652;SDS011;11493;43.344;26.226;2023-11-19T01:56:35;2.38;;;1.88;;
22652;SDS011;11493;43.344;26.226;2023-11-19T01:59:07;2.63;;;2.00;;
22652;SDS011;11493;43.344;26.226;2023-11-19T02:01:37;2.15;;;1.90;;
22652;SDS011;11493;43.344;26.226;2023-11-19T02:04:07;2.72;;;2.40;;
22652;SDS011;11493;43.344;26.226;2023-11-19T02:06:40;2.30;;;2.10;;
22652;SDS011;11493;43.344;26.226;2023-11-19T02:09:08;2.10;;;1.90;;
22652;SDS011;11493;43.344;26.226;2023-11-19T02:11:36;2.88;;;2.15;;
22652;SDS011;11493;43.344;26.226;2023-11-19T02:14:06;2.05;;;1.83;;
22652;SDS011;11493;43.344;26.226;2023-11-19T02:16:33;2.90;;;2.60;;
22652;SDS011;11493;43.344;26.226;2023-11-19T02:19:01;2.88;;;2.58;;
22652;SDS011;11493;43.344;26.226;2023-11-19T02:21:28;4.70;;;3.50;;
22652;SDS011;11493;43.344;26.226;2023-11-19T02:23:56;4.85;;;3.85;;
22652;SDS011;11493;43.344;26.226;2023-11-19T02:26:37;3.30;;;3.00;;
22652;SDS011;11493;43.344;26.226;2023-11-19T02:29:09;4.20;;;3.78;;
22652;SDS011;11493;43.344;26.226;2023-11-19T02:31:36;4.00;;;3.00;;
22652;SDS011;11493;43.344;26.226;2023-11-19T02:34:03;3.28;;;2.97;;
22652;SDS011;11493;43.344;26.226;2023-11-19T02:36:30;3.65;;;3.35;;
22652;SDS011;11493;43.344;26.226;2023-11-19T02:38:58;4.25;;;3.85;;
22652;SDS011;11493;43.344;26.226;2023-11-19T02:41:26;4.63;;;3.90;;
22652;SDS011;11493;43.344;26.226;2023-11-19T02:43:53;4.85;;;4.35;;
22652;SDS011;11493;43.344;26.226;2023-11-19T02:46:20;6.10;;;4.25;;
22652;SDS011;11493;43.344;26.226;2023-11-19T02:48:47;4.60;;;4.20;;
22652;SDS011;11493;43.344;26.226;2023-11-19T02:51:14;4.75;;;4.22;;
22652;SDS011;11493;43.344;26.226;2023-11-19T02:53:41;4.68;;;4.07;;
22652;SDS011;11493;43.344;26.226;2023-11-19T02:56:11;4.93;;;4.47;;
22652;SDS011;11493;43.344;26.226;2023-11-19T02:58:53;5.25;;;4.75;;
22652;SDS011;11493;43.344;26.226;2023-11-19T03:01:21;5.18;;;4.68;;
22652;SDS011;11493;43.344;26.226;2023-11-19T03:03:57;9.00;;;5.97;;
22652;SDS011;11493;43.344;26.226;2023-11-19T03:06:25;8.48;;;6.75;;
22652;SDS011;11493;43.344;26.226;2023-11-19T03:08:57;6.07;;;5.47;;
22652;SDS011;11493;43.344;26.226;2023-11-19T03:11:24;6.57;;;5.28;;
22652;SDS011;11493;43.344;26.226;2023-11-19T03:13:51;4.65;;;4.25;;
22652;SDS011;11493;43.344;26.226;2023-11-19T03:16:18;5.78;;;4.15;;
22652;SDS011;11493;43.344;26.226;2023-11-19T03:18:45;5.05;;;4.35;;
22652;SDS011;11493;43.344;26.226;2023-11-19T03:21:13;4.85;;;3.95;;
22652;SDS011;11493;43.344;26.226;2023-11-19T03:23:40;6.07;;;4.78;;
22652;SDS011;11493;43.344;26.226;2023-11-19T03:26:07;5.72;;;4.85;;
22652;SDS011;11493;43.344;26.226;2023-11-19T03:28:35;5.07;;;4.50;;
22652;SDS011;11493;43.344;26.226;2023-11-19T03:31:06;6.00;;;4.88;;
22652;SDS011;11493;43.344;26.226;2023-11-19T03:33:36;4.75;;;4.28;;
22652;SDS011;11493;43.344;26.226;2023-11-19T03:36:04;4.95;;;4.45;;
22652;SDS011;11493;43.344;26.226;2023-11-19T03:38:32;4.85;;;4.35;;
22652;SDS011;11493;43.344;26.226;2023-11-19T03:40:59;4.35;;;3.95;;
22652;SDS011;11493;43.344;26.226;2023-11-19T03:43:26;4.97;;;4.47;;
22652;SDS011;11493;43.344;26.226;2023-11-19T03:45:54;4.57;;;4.18;;
22652;SDS011;11493;43.344;26.226;2023-11-19T03:48:21;4.65;;;4.20;;
22652;SDS011;11493;43.344;26.226;2023-11-19T03:50:49;6.70;;;4.30;;
22652;SDS011;11493;43.344;26.226;2023-11-19T03:53:16;5.82;;;4.60;;
22652;SDS011;11493;43.344;26.226;2023-11-19T03:55:43;6.40;;;4.82;;
22652;SDS011;11493;43.344;26.226;2023-11-19T03:58:10;4.90;;;4.40;;
22652;SDS011;11493;43.344;26.226;2023-11-19T04:00:37;4.60;;;4.20;;
22652;SDS011;11493;43.344;26.226;2023-11-19T04:03:04;4.75;;;4.32;;
22652;SDS011;11493;43.344;26.226;2023-11-19T04:05:31;8.52;;;4.57;;
22652;SDS011;11493;43.344;26.226;2023-11-19T04:07:58;5.13;;;4.35;;
22652;SDS011;11493;43.344;26.226;2023-11-19T04:10:25;4.97;;;4.47;;
22652;SDS011;11493;43.344;26.226;2023-11-19T04:12:55;4.37;;;3.97;;
22652;SDS011;11493;43.344;26.226;2023-11-19T04:15:23;5.10;;;4.47;;
22652;SDS011;11493;43.344;26.226;2023-11-19T04:17:50;3.97;;;3.65;;
22652;SDS011;11493;43.344;26.226;2023-11-19T04:20:18;3.55;;;3.25;;
22652;SDS011;11493;43.344;26.226;2023-11-19T04:22:45;4.60;;;3.60;;
22652;SDS011;11493;43.344;26.226;2023-11-19T04:25:12;4.20;;;3.80;;
22652;SDS011;11493;43.344;26.226;2023-11-19T04:27:41;4.47;;;4.07;;
22652;SDS011;11493;43.344;26.226;2023-11-19T04:30:08;4.28;;;3.88;;
22652;SDS011;11493;43.344;26.226;2023-11-19T04:32:38;6.38;;;3.97;;
22652;SDS011;11493;43.344;26.226;2023-11-19T04:35:05;7.45;;;4.22;;
22652;SDS011;11493;43.344;26.226;2023-11-19T04:37:33;5.97;;;4.57;;
22652;SDS011;11493;43.344;26.226;2023-11-19T04:40:01;5.72;;;5.07;;
22652;SDS011;11493;43.344;26.226;2023-11-19T04:42:29;6.22;;;5.55;;
22652;SDS011;11493;43.344;26.226;2023-11-19T04:44:56;4.95;;;4.45;;
22652;SDS011;11493;43.344;26.226;2023-11-19T04:47:23;6.90;;;5.47;;
22652;SDS011;11493;43.344;26.226;2023-11-19T04:49:50;5.07;;;4.68;;
22652;SDS011;11493;43.344;26.226;2023-11-19T04:52:17;4.85;;;4.40;;
22652;SDS011;11493;43.344;26.226;2023-11-19T04:54:44;5.90;;;5.25;;
22652;SDS011;11493;43.344;26.226;2023-11-19T04:57:12;5.85;;;4.72;;
22652;SDS011;11493;43.344;26.226;2023-11-19T04:59:39;6.57;;;5.95;;
22652;SDS011;11493;43.344;26.226;2023-11-19T05:02:06;6.90;;;6.30;;
22652;SDS011;11493;43.344;26.226;2023-11-19T05:04:34;7.85;;;6.78;;
22652;SDS011;11493;43.344;26.226;2023-11-19T05:07:02;7.80;;;6.85;;
22652;SDS011;11493;43.344;26.226;2023-11-19T05:09:29;13.38;;;7.07;;
22652;SDS011;11493;43.344;26.226;2023-11-19T05:11:57;7.38;;;6.68;;
22652;SDS011;11493;43.344;26.226;2023-11-19T05:14:24;7.65;;;6.72;;
22652;SDS011;11493;43.344;26.226;2023-11-19T05:16:51;7.72;;;7.03;;
22652;SDS011;11493;43.344;26.226;2023-11-19T05:19:18;6.68;;;5.88;;
22652;SDS011;11493;43.344;26.226;2023-11-19T05:21:45;8.20;;;6.13;;
22652;SDS011;11493;43.344;26.226;2023-11-19T05:24:13;6.95;;;5.93;;
22652;SDS011;11493;43.344;26.226;2023-11-19T05:26:40;6.72;;;5.50;;
22652;SDS011;11493;43.344;26.226;2023-11-19T05:29:08;8.73;;;6.25;;
22652;SDS011;11493;43.344;26.226;2023-11-19T05:31:35;7.78;;;6.35;;
22652;SDS011;11493;43.344;26.226;2023-11-19T05:34:04;7.47;;;6.75;;
22652;SDS011;11493;43.344;26.226;2023-11-19T05:36:31;8.68;;;7.18;;
22652;SDS011;11493;43.344;26.226;2023-11-19T05:38:58;7.75;;;7.00;;
22652;SDS011;11493;43.344;26.226;2023-11-19T05:41:25;7.30;;;6.63;;
22652;SDS011;11493;43.344;26.226;2023-11-19T05:43:52;7.25;;;6.35;;
22652;SDS011;11493;43.344;26.226;2023-11-19T05:46:19;7.43;;;6.60;;
22652;SDS011;11493;43.344;26.226;2023-11-19T05:48:47;6.65;;;4.55;;
22652;SDS011;11493;43.344;26.226;2023-11-19T05:51:15;5.72;;;5.13;;
22652;SDS011;11493;43.344;26.226;2023-11-19T05:53:43;5.57;;;4.72;;
22652;SDS011;11493;43.344;26.226;2023-11-19T05:56:12;5.15;;;4.70;;
22652;SDS011;11493;43.344;26.226;2023-11-19T05:58:40;8.68;;;7.10;;
22652;SDS011;11493;43.344;26.226;2023-11-19T06:01:07;7.82;;;5.72;;
22652;SDS011;11493;43.344;26.226;2023-11-19T06:03:35;7.50;;;5.70;;
22652;SDS011;11493;43.344;26.226;2023-11-19T06:06:03;31.40;;;17.52;;
22652;SDS011;11493;43.344;26.226;2023-11-19T06:08:32;7.18;;;5.25;;
22652;SDS011;11493;43.344;26.226;2023-11-19T06:10:59;4.60;;;4.20;;
22652;SDS011;11493;43.344;26.226;2023-11-19T06:13:28;3.83;;;3.35;;
22652;SDS011;11493;43.344;26.226;2023-11-19T06:15:58;3.95;;;3.58;;
22652;SDS011;11493;43.344;26.226;2023-11-19T06:18:25;4.53;;;4.00;;
22652;SDS011;11493;43.344;26.226;2023-11-19T06:20:52;7.40;;;3.58;;
22652;SDS011;11493;43.344;26.226;2023-11-19T06:23:19;6.18;;;5.50;;
22652;SDS011;11493;43.344;26.226;2023-11-19T06:25:46;7.15;;;6.13;;
22652;SDS011;11493;43.344;26.226;2023-11-19T06:28:13;7.22;;;3.95;;
22652;SDS011;11493;43.344;26.226;2023-11-19T06:30:41;4.45;;;4.05;;
22652;SDS011;11493;43.344;26.226;2023-11-19T06:33:09;7.65;;;4.88;;
22652;SDS011;11493;43.344;26.226;2023-11-19T06:35:39;4.40;;;4.00;;
22652;SDS011;11493;43.344;26.226;2023-11-19T06:38:06;3.88;;;3.50;;
22652;SDS011;11493;43.344;26.226;2023-11-19T06:40:34;2.85;;;2.55;;
22652;SDS011;11493;43.344;26.226;2023-11-19T06:43:04;5.93;;;3.83;;
22652;SDS011;11493;43.344;26.226;2023-11-19T06:45:31;3.83;;;3.40;;
22652;SDS011;11493;43.344;26.226;2023-11-19T06:48:00;4.65;;;3.60;;
22652;SDS011;11493;43.344;26.226;2023-11-19T06:50:30;3.28;;;2.63;;
22652;SDS011;11493;43.344;26.226;2023-11-19T06:52:58;5.72;;;4.05;;
22652;SDS011;11493;43.344;26.226;2023-11-19T06:55:26;5.13;;;3.90;;
22652;SDS011;11493;43.344;26.226;2023-11-19T06:57:53;5.10;;;3.88;;
22652;SDS011;11493;43.344;26.226;2023-11-19T07:00:20;7.07;;;5.57;;
22652;SDS011;11493;43.344;26.226;2023-11-19T07:02:47;7.22;;;5.20;;
22652;SDS011;11493;43.344;26.226;2023-11-19T07:05:15;8.20;;;6.30;;
22652;SDS011;11493;43.344;26.226;2023-11-19T07:07:42;9.63;;;5.95;;
22652;SDS011;11493;43.344;26.226;2023-11-19T07:10:09;5.70;;;4.95;;
22652;SDS011;11493;43.344;26.226;2023-11-19T07:12:36;3.33;;;3.03;;
22652;SDS011;11493;43.344;26.226;2023-11-19T07:15:04;4.57;;;3.80;;
22652;SDS011;11493;43.344;26.226;2023-11-19T07:17:32;3.97;;;3.55;;
22652;SDS011;11493;43.344;26.226;2023-11-19T07:19:59;7.70;;;5.00;;
22652;SDS011;11493;43.344;26.226;2023-11-19T07:22:27;4.13;;;3.72;;
22652;SDS011;11493;43.344;26.226;2023-11-19T07:24:56;3.53;;;2.95;;
22652;SDS011;11493;43.344;26.226;2023-11-19T07:27:23;9.00;;;7.55;;
22652;SDS011;11493;43.344;26.226;2023-11-19T07:29:51;13.82;;;7.55;;
22652;SDS011;11493;43.344;26.226;2023-11-19T07:32:18;6.43;;;5.60;;
22652;SDS011;11493;43.344;26.226;2023-11-19T07:34:45;9.95;;;6.97;;
22652;SDS011;11493;43.344;26.226;2023-11-19T07:37:12;7.82;;;6.97;;
22652;SDS011;11493;43.344;26.226;2023-11-19T07:39:39;9.13;;;8.23;;
22652;SDS011;11493;43.344;26.226;2023-11-19T07:42:08;8.15;;;7.45;;
22652;SDS011;11493;43.344;26.226;2023-11-19T07:44:36;7.47;;;6.88;;
22652;SDS011;11493;43.344;26.226;2023-11-19T07:47:03;5.57;;;5.00;;
22652;SDS011;11493;43.344;26.226;2023-11-19T07:49:31;7.03;;;5.13;;
22652;SDS011;11493;43.344;26.226;2023-11-19T07:51:58;5.03;;;4.63;;
22652;SDS011;11493;43.344;26.226;2023-11-19T07:54:25;5.10;;;4.65;;
22652;SDS011;11493;43.344;26.226;2023-11-19T07:56:52;3.92;;;3.63;;
22652;SDS011;11493;43.344;26.226;2023-11-19T07:59:20;4.65;;;3.65;;
22652;SDS011;11493;43.344;26.226;2023-11-19T08:01:47;5.60;;;4.53;;
22652;SDS011;11493;43.344;26.226;2023-11-19T08:04:14;5.95;;;5.45;;
22652;SDS011;11493;43.344;26.226;2023-11-19T08:06:42;5.15;;;4.65;;
22652;SDS011;11493;43.344;26.226;2023-11-19T08:09:09;4.93;;;4.53;;
22652;SDS011;11493;43.344;26.226;2023-11-19T08:11:41;5.55;;;3.92;;
22652;SDS011;11493;43.344;26.226;2023-11-19T08:14:08;4.38;;;3.97;;
22652;SDS011;11493;43.344;26.226;2023-11-19T08:16:36;7.70;;;4.97;;
22652;SDS011;11493;43.344;26.226;2023-11-19T08:19:04;5.10;;;4.40;;
22652;SDS011;11493;43.344;26.226;2023-11-19T08:21:31;4.75;;;4.32;;
22652;SDS011;11493;43.344;26.226;2023-11-19T08:23:59;6.28;;;4.38;;
22652;SDS011;11493;43.344;26.226;2023-11-19T08:26:26;4.15;;;3.70;;
22652;SDS011;11493;43.344;26.226;2023-11-19T08:28:53;4.95;;;4.45;;
22652;SDS011;11493;43.344;26.226;2023-11-19T08:31:20;5.07;;;4.68;;
22652;SDS011;11493;43.344;26.226;2023-11-19T08:33:47;5.95;;;4.50;;
22652;SDS011;11493;43.344;26.226;2023-11-19T08:36:15;4.78;;;4.25;;
22652;SDS011;11493;43.344;26.226;2023-11-19T08:38:44;5.18;;;4.68;;
22652;SDS011;11493;43.344;26.226;2023-11-19T08:41:11;13.23;;;7.88;;
22652;SDS011;11493;43.344;26.226;2023-11-19T08:43:38;6.50;;;5.50;;
22652;SDS011;11493;43.344;26.226;2023-11-19T08:46:10;5.40;;;4.85;;
22652;SDS011;11493;43.344;26.226;2023-11-19T08:48:38;5.30;;;4.75;;
22652;SDS011;11493;43.344;26.226;2023-11-19T08:51:06;4.63;;;4.13;;
22652;SDS011;11493;43.344;26.226;2023-11-19T08:53:33;4.80;;;4.40;;
22652;SDS011;11493;43.344;26.226;2023-11-19T08:56:00;4.97;;;4.57;;
22652;SDS011;11493;43.344;26.226;2023-11-19T08:58:30;6.45;;;5.85;;
22652;SDS011;11493;43.344;26.226;2023-11-19T09:00:57;8.35;;;7.55;;
22652;SDS011;11493;43.344;26.226;2023-11-19T09:03:25;5.80;;;5.20;;
22652;SDS011;11493;43.344;26.226;2023-11-19T09:05:57;10.75;;;7.35;;
22652;SDS011;11493;43.344;26.226;2023-11-19T09:08:24;4.82;;;4.43;;
22652;SDS011;11493;43.344;26.226;2023-11-19T09:10:51;5.95;;;5.40;;
22652;SDS011;11493;43.344;26.226;2023-11-19T09:13:18;3.90;;;3.50;;
22652;SDS011;11493;43.344;26.226;2023-11-19T09:15:45;6.22;;;4.05;;
22652;SDS011;11493;43.344;26.226;2023-11-19T09:18:12;5.60;;;5.10;;
22652;SDS011;11493;43.344;26.226;2023-11-19T09:20:39;4.93;;;4.53;;
22652;SDS011;11493;43.344;26.226;2023-11-19T09:23:06;6.68;;;5.35;;
22652;SDS011;11493;43.344;26.226;2023-11-19T09:25:35;6.80;;;4.80;;
22652;SDS011;11493;43.344;26.226;2023-11-19T09:28:05;8.00;;;5.22;;
22652;SDS011;11493;43.344;26.226;2023-11-19T09:30:32;4.63;;;4.22;;
22652;SDS011;11493;43.344;26.226;2023-11-19T09:33:00;4.20;;;3.80;;
22652;SDS011;11493;43.344;26.226;2023-11-19T09:35:28;4.28;;;3.72;;
22652;SDS011;11493;43.344;26.226;2023-11-19T09:37:55;4.72;;;4.25;;
22652;SDS011;11493;43.344;26.226;2023-11-19T09:40:23;4.20;;;3.35;;
22652;SDS011;11493;43.344;26.226;2023-11-19T09:42:50;3.70;;;3.40;;
22652;SDS011;11493;43.344;26.226;2023-11-19T09:45:17;4.63;;;4.10;;
22652;SDS011;11493;43.344;26.226;2023-11-19T09:47:47;4.28;;;3.88;;
22652;SDS011;11493;43.344;26.226;2023-11-19T09:50:19;6.22;;;5.60;;
22652;SDS011;11493;43.344;26.226;2023-11-19T09:52:47;4.28;;;3.83;;
22652;SDS011;11493;43.344;26.226;2023-11-19T09:55:14;4.90;;;4.20;;
22652;SDS011;11493;43.344;26.226;2023-11-19T09:57:41;5.18;;;4.68;;
22652;SDS011;11493;43.344;26.226;2023-11-19T10:00:11;8.27;;;4.80;;
22652;SDS011;11493;43.344;26.226;2023-11-19T10:02:41;4.80;;;4.35;;
22652;SDS011;11493;43.344;26.226;2023-11-19T10:05:13;5.18;;;4.72;;
22652;SDS011;11493;43.344;26.226;2023-11-19T10:07:42;5.55;;;5.05;;
22652;SDS011;11493;43.344;26.226;2023-11-19T10:10:09;5.80;;;5.22;;
22652;SDS011;11493;43.344;26.226;2023-11-19T10:12:40;7.70;;;6.28;;
22652;SDS011;11493;43.344;26.226;2023-11-19T10:15:24;4.85;;;4.43;;
22652;SDS011;11493;43.344;26.226;2023-11-19T10:17:57;6.55;;;5.30;;
22652;SDS011;11493;43.344;26.226;2023-11-19T10:20:24;4.35;;;3.95;;
22652;SDS011;11493;43.344;26.226;2023-11-19T10:22:52;4.78;;;4.32;;
22652;SDS011;11493;43.344;26.226;2023-11-19T10:25:22;3.92;;;3.60;;
22652;SDS011;11493;43.344;26.226;2023-11-19T10:27:51;3.88;;;3.58;;
22652;SDS011;11493;43.344;26.226;2023-11-19T10:30:23;6.25;;;3.47;;
22652;SDS011;11493;43.344;26.226;2023-11-19T10:33:08;4.45;;;3.88;;
22652;SDS011;11493;43.344;26.226;2023-11-19T10:35:53;6.30;;;4.63;;
22652;SDS011;11493;43.344;26.226;2023-11-19T10:38:24;3.97;;;3.58;;
22652;SDS011;11493;43.344;26.226;2023-11-19T10:40:52;4.20;;;3.80;;
22652;SDS011;11493;43.344;26.226;2023-11-19T10:43:21;13.52;;;6.90;;
22652;SDS011;11493;43.344;26.226;2023-11-19T10:48:19;5.28;;;4.38;;
22652;SDS011;11493;43.344;26.226;2023-11-19T10:50:49;5.43;;;4.20;;
22652;SDS011;11493;43.344;26.226;2023-11-19T10:53:23;3.92;;;3.60;;
22652;SDS011;11493;43.344;26.226;2023-11-19T10:55:53;5.00;;;4.50;;
22652;SDS011;11493;43.344;26.226;2023-11-19T10:58:25;5.10;;;4.63;;
22652;SDS011;11493;43.344;26.226;2023-11-19T11:00:57;5.28;;;4.78;;
22652;SDS011;11493;43.344;26.226;2023-11-19T11:03:31;10.68;;;4.47;;
22652;SDS011;11493;43.344;26.226;2023-11-19T11:06:09;5.18;;;4.53;;
22652;SDS011;11493;43.344;26.226;2023-11-19T11:08:37;4.07;;;3.47;;
22652;SDS011;11493;43.344;26.226;2023-11-19T11:11:06;6.60;;;5.68;;
22652;SDS011;11493;43.344;26.226;2023-11-19T11:13:34;4.22;;;3.90;;
22652;SDS011;11493;43.344;26.226;2023-11-19T11:16:03;4.95;;;4.43;;
22652;SDS011;11493;43.344;26.226;2023-11-19T11:18:34;3.92;;;3.58;;
22652;SDS011;11493;43.344;26.226;2023-11-19T11:21:08;4.82;;;3.88;;
22652;SDS011;11493;43.344;26.226;2023-11-19T11:32:01;5.72;;;5.00;;
22652;SDS011;11493;43.344;26.226;2023-11-19T11:34:50;3.83;;;2.97;;
22652;SDS011;11493;43.344;26.226;2023-11-19T11:37:35;3.50;;;3.20;;
22652;SDS011;11493;43.344;26.226;2023-11-19T11:40:06;4.50;;;3.78;;
22652;SDS011;11493;43.344;26.226;2023-11-19T11:42:40;3.63;;;3.33;;
22652;SDS011;11493;43.344;26.226;2023-11-19T11:45:08;5.25;;;4.75;;
22652;SDS011;11493;43.344;26.226;2023-11-19T11:50:16;8.70;;;6.15;;
22652;SDS011;11493;43.344;26.226;2023-11-19T11:55:28;5.20;;;3.95;;
22652;SDS011;11493;43.344;26.226;2023-11-19T11:58:00;6.95;;;4.07;;
22652;SDS011;11493;43.344;26.226;2023-11-19T12:00:29;4.32;;;3.92;;
22652;SDS011;11493;43.344;26.226;2023-11-19T12:03:01;5.10;;;4.60;;
22652;SDS011;11493;43.344;26.226;2023-11-19T12:05:30;5.30;;;4.80;;
22652;SDS011;11493;43.344;26.226;2023-11-19T12:08:01;13.20;;;9.35;;
22652;SDS011;11493;43.344;26.226;2023-11-19T12:13:16;8.52;;;5.82;;
22652;SDS011;11493;43.344;26.226;2023-11-19T12:18:30;7.85;;;5.97;;
22652;SDS011;11493;43.344;26.226;2023-11-19T12:20:59;6.50;;;5.85;;
22652;SDS011;11493;43.344;26.226;2023-11-19T12:23:28;11.02;;;9.27;;
22652;SDS011;11493;43.344;26.226;2023-11-19T12:25:56;6.88;;;6.15;;
22652;SDS011;11493;43.344;26.226;2023-11-19T12:28:24;4.57;;;4.18;;
22652;SDS011;11493;43.344;26.226;2023-11-19T12:30:54;5.07;;;4.57;;
22652;SDS011;11493;43.344;26.226;2023-11-19T12:33:36;5.28;;;4.05;;
22652;SDS011;11493;43.344;26.226;2023-11-19T12:36:04;4.55;;;4.15;;
22652;SDS011;11493;43.344;26.226;2023-11-19T12:38:32;5.60;;;4.60;;
22652;SDS011;11493;43.344;26.226;2023-11-19T12:41:06;12.82;;;9.18;;
22652;SDS011;11493;43.344;26.226;2023-11-19T12:43:35;5.60;;;5.07;;
22652;SDS011;11493;43.344;26.226;2023-11-19T12:48:48;5.20;;;4.78;;
22652;SDS011;11493;43.344;26.226;2023-11-19T12:51:16;5.70;;;5.15;;
22652;SDS011;11493;43.344;26.226;2023-11-19T12:53:50;5.53;;;4.72;;
22652;SDS011;11493;43.344;26.226;2023-11-19T12:56:24;6.32;;;5.70;;
22652;SDS011;11493;43.344;26.226;2023-11-19T12:58:52;6.78;;;5.00;;
22652;SDS011;11493;43.344;26.226;2023-11-19T13:01:19;5.70;;;5.20;;
22652;SDS011;11493;43.344;26.226;2023-11-19T13:03:48;6.47;;;5.45;;
22652;SDS011;11493;43.344;26.226;2023-11-19T13:06:16;9.27;;;7.05;;
22652;SDS011;11493;43.344;26.226;2023-11-19T13:08:44;6.22;;;5.28;;
22652;SDS011;11493;43.344;26.226;2023-11-19T13:11:12;8.20;;;6.30;;
22652;SDS011;11493;43.344;26.226;2023-11-19T13:13:56;8.40;;;6.68;;
22652;SDS011;11493;43.344;26.226;2023-11-19T13:16:26;12.88;;;8.38;;
22652;SDS011;11493;43.344;26.226;2023-11-19T13:18:55;27.20;;;12.80;;
22652;SDS011;11493;43.344;26.226;2023-11-19T13:21:22;29.30;;;13.02;;
22652;SDS011;11493;43.344;26.226;2023-11-19T13:23:50;21.65;;;11.18;;
22652;SDS011;11493;43.344;26.226;2023-11-19T13:26:17;24.25;;;13.05;;
22652;SDS011;11493;43.344;26.226;2023-11-19T13:28:45;23.70;;;9.57;;
22652;SDS011;11493;43.344;26.226;2023-11-19T13:31:13;14.80;;;9.70;;
22652;SDS011;11493;43.344;26.226;2023-11-19T13:33:41;13.13;;;9.13;;
22652;SDS011;11493;43.344;26.226;2023-11-19T13:36:08;17.50;;;9.75;;
22652;SDS011;11493;43.344;26.226;2023-11-19T13:38:40;8.68;;;6.82;;
22652;SDS011;11493;43.344;26.226;2023-11-19T13:41:10;16.42;;;9.57;;
22652;SDS011;11493;43.344;26.226;2023-11-19T13:43:39;29.75;;;16.50;;
22652;SDS011;11493;43.344;26.226;2023-11-19T13:46:06;16.40;;;11.18;;
22652;SDS011;11493;43.344;26.226;2023-11-19T13:48:37;12.60;;;8.35;;
22652;SDS011;11493;43.344;26.226;2023-11-19T13:51:05;16.10;;;10.73;;
22652;SDS011;11493;43.344;26.226;2023-11-19T13:53:32;10.35;;;7.35;;
22652;SDS011;11493;43.344;26.226;2023-11-19T13:56:17;7.97;;;6.78;;
22652;SDS011;11493;43.344;26.226;2023-11-19T13:58:44;26.42;;;14.82;;
22652;SDS011;11493;43.344;26.226;2023-11-19T14:01:12;18.58;;;11.85;;
22652;SDS011;11493;43.344;26.226;2023-11-19T14:03:40;15.20;;;10.27;;
22652;SDS011;11493;43.344;26.226;2023-11-19T14:06:08;21.30;;;12.95;;
22652;SDS011;11493;43.344;26.226;2023-11-19T14:08:36;21.75;;;12.52;;
22652;SDS011;11493;43.344;26.226;2023-11-19T14:11:03;21.30;;;11.18;;
22652;SDS011;11493;43.344;26.226;2023-11-19T14:13:30;10.10;;;7.90;;
22652;SDS011;11493;43.344;26.226;2023-11-19T14:15:57;7.95;;;7.13;;
22652;SDS011;11493;43.344;26.226;2023-11-19T14:18:24;9.77;;;7.82;;
22652;SDS011;11493;43.344;26.226;2023-11-19T14:20:52;10.48;;;6.22;;
22652;SDS011;11493;43.344;26.226;2023-11-19T14:23:19;7.97;;;7.18;;
22652;SDS011;11493;43.344;26.226;2023-11-19T14:25:46;11.93;;;8.88;;
22652;SDS011;11493;43.344;26.226;2023-11-19T14:28:13;7.57;;;6.88;;
22652;SDS011;11493;43.344;26.226;2023-11-19T14:30:41;9.98;;;8.43;;
22652;SDS011;11493;43.344;26.226;2023-11-19T14:33:08;7.88;;;6.75;;
22652;SDS011;11493;43.344;26.226;2023-11-19T14:35:36;11.57;;;9.23;;
22652;SDS011;11493;43.344;26.226;2023-11-19T14:38:03;16.88;;;11.93;;
22652;SDS011;11493;43.344;26.226;2023-11-19T14:40:32;14.32;;;11.80;;
22652;SDS011;11493;43.344;26.226;2023-11-19T14:43:02;15.55;;;12.52;;
22652;SDS011;11493;43.344;26.226;2023-11-19T14:45:29;17.13;;;12.75;;
22652;SDS011;11493;43.344;26.226;2023-11-19T14:48:07;18.75;;;13.00;;
22652;SDS011;11493;43.344;26.226;2023-11-19T14:50:34;16.33;;;11.13;;
22652;SDS011;11493;43.344;26.226;2023-11-19T14:53:01;25.80;;;16.42;;
22652;SDS011;11493;43.344;26.226;2023-11-19T14:55:28;22.58;;;13.75;;
22652;SDS011;11493;43.344;26.226;2023-11-19T14:57:56;28.70;;;15.68;;
22652;SDS011;11493;43.344;26.226;2023-11-19T15:00:34;20.08;;;13.18;;
22652;SDS011;11493;43.344;26.226;2023-11-19T15:03:01;25.80;;;14.52;;